Time;durP1;ratioP1;P1;durP2;ratioP2;P2;SDS_P1;SDS_P2;PMS_P1;PMS_P2;Temp;Humidity;BMP_temperature;BMP_pressure;BME280_temperature;BME280_humidity;BME280_pressure;Samples;Min_cycle;Max_cycle;Signal;HPM_P1;HPM_P2
2023/12/07 00:03:17;;;;;;;7.65;6.90;;;;;;;5.94;81.84;100489.56;10333942;28;20061;-63
2023/12/07 00:08:18;;;;;;;8.68;7.47;;;;;;;5.79;82.55;100462.25;10335205;28;20129;-62
2023/12/07 00:13:20;;;;;;;9.35;7.15;;;;;;;5.90;82.45;100496.00;10337790;28;20053;-63
2023/12/07 00:18:22;;;;;;;12.25;8.15;;;;;;;5.88;82.04;100503.13;10337376;28;20068;-63
2023/12/07 00:23:23;;;;;;;9.95;7.80;;;;;;;5.88;81.68;100513.72;10351433;28;20164;-63
2023/12/07 00:28:25;;;;;;;9.10;8.18;;;;;;;5.85;82.89;100513.88;10333596;28;20053;-62
2023/12/07 00:33:26;;;;;;;9.43;7.72;;;;;;;5.88;82.85;100513.72;10339874;28;20137;-62
2023/12/07 00:38:27;;;;;;;9.73;8.20;;;;;;;5.86;82.98;100502.38;10357097;28;20169;-63
2023/12/07 00:43:29;;;;;;;10.88;8.63;;;;;;;5.86;82.42;100523.53;10359997;28;20607;-62
2023/12/07 00:48:30;;;;;;;10.15;8.15;;;;;;;5.81;82.11;100517.63;10346541;28;20128;-61
2023/12/07 00:53:33;;;;;;;8.93;8.02;;;;;;;5.80;82.66;100518.59;10332750;28;20262;-63
2023/12/07 00:58:36;;;;;;;11.10;8.77;;;;;;;5.72;82.80;100523.44;10338357;28;20061;-62
2023/12/07 01:03:40;;;;;;;8.98;7.88;;;;;;;5.72;82.95;100531.34;10341858;28;20103;-61
2023/12/07 01:08:41;;;;;;;10.70;9.63;;;;;;;5.45;83.50;100511.69;10342789;28;20116;-62
2023/12/07 01:13:43;;;;;;;10.40;9.32;;;;;;;5.49;83.89;100539.63;10343317;28;20050;-63
2023/12/07 01:18:46;;;;;;;10.27;8.35;;;;;;;5.51;84.35;100536.91;10331120;28;20053;-64
2023/12/07 01:23:48;;;;;;;11.65;9.27;;;;;;;5.37;84.31;100524.44;10328711;28;20719;-62
2023/12/07 01:28:59;;;;;;;11.10;8.75;;;;;;;5.39;84.13;100550.75;10353792;28;20049;-63
2023/12/07 01:34:00;;;;;;;8.95;7.93;;;;;;;5.35;84.33;100558.00;10356110;28;20056;-62
2023/12/07 01:39:03;;;;;;;9.77;8.23;;;;;;;5.35;84.45;100551.88;10343519;28;20050;-63
2023/12/07 01:44:04;;;;;;;12.15;9.13;;;;;;;5.28;84.73;100554.84;10341767;28;20049;-62
2023/12/07 01:49:06;;;;;;;11.18;9.55;;;;;;;5.19;83.90;100536.00;10338954;28;20078;-63
2023/12/07 01:54:08;;;;;;;11.90;9.57;;;;;;;5.22;84.28;100552.53;10347208;28;20068;-62
2023/12/07 01:59:11;;;;;;;9.52;8.55;;;;;;;5.23;84.02;100546.31;10329274;28;20247;-63
2023/12/07 02:04:12;;;;;;;10.35;8.38;;;;;;;5.15;84.39;100567.00;10346051;28;20549;-63
2023/12/07 02:09:14;;;;;;;9.90;8.90;;;;;;;5.04;84.35;100574.63;10342070;28;20073;-63
2023/12/07 02:14:18;;;;;;;11.75;9.63;;;;;;;4.92;84.68;100571.69;10342257;28;20072;-63
2023/12/07 02:19:47;;;;;;;10.68;9.63;;;;;;;4.96;85.09;100573.22;10343580;28;20422;-62
2023/12/07 02:25:18;;;;;;;11.88;8.63;;;;;;;5.04;84.89;100569.34;10343873;28;20626;-61
2023/12/07 02:30:22;;;;;;;10.25;8.43;;;;;;;4.99;84.10;100566.09;10337099;28;20050;-63
2023/12/07 02:35:24;;;;;;;11.10;8.88;;;;;;;4.89;84.75;100570.97;10334839;28;20049;-63
2023/12/07 02:40:27;;;;;;;10.18;9.07;;;;;;;4.79;84.40;100575.91;10344146;28;20124;-63
2023/12/07 02:45:29;;;;;;;10.30;8.43;;;;;;;4.82;84.84;100578.38;10340065;28;20112;-63
2023/12/07 02:50:30;;;;;;;10.55;9.52;;;;;;;4.74;83.76;100573.50;10345657;28;20115;-62
2023/12/07 02:55:31;;;;;;;11.15;9.00;;;;;;;4.62;84.23;100558.28;10326606;28;20065;-63
2023/12/07 03:00:33;;;;;;;10.60;9.45;;;;;;;4.59;84.24;100567.22;10344534;28;20065;-64
2023/12/07 03:05:35;;;;;;;12.05;9.32;;;;;;;4.54;84.19;100561.31;10342515;28;20187;-63
2023/12/07 03:10:36;;;;;;;11.00;9.90;;;;;;;4.46;84.17;100584.56;10355541;28;20053;-62
2023/12/07 03:15:37;;;;;;;12.15;9.13;;;;;;;4.46;84.50;100576.66;10342939;28;20129;-63
2023/12/07 03:20:39;;;;;;;10.48;9.25;;;;;;;4.51;84.30;100587.81;10334369;28;20755;-63
2023/12/07 03:25:40;;;;;;;9.98;8.95;;;;;;;4.42;83.82;100589.13;10324944;28;20159;-63
2023/12/07 03:30:42;;;;;;;12.35;8.98;;;;;;;4.39;84.35;100594.56;10338906;28;20061;-63
2023/12/07 03:35:43;;;;;;;9.45;8.50;;;;;;;4.31;84.13;100572.13;10356745;28;20160;-62
2023/12/07 03:40:47;;;;;;;12.02;10.23;;;;;;;4.43;84.22;100590.00;10332708;28;20058;-66
2023/12/07 03:45:50;;;;;;;10.55;8.30;;;;;;;4.35;84.32;100585.09;10331266;28;20147;-63
2023/12/07 03:50:51;;;;;;;9.85;8.82;;;;;;;4.19;84.16;100587.63;10338277;28;20053;-62
2023/12/07 03:55:53;;;;;;;11.43;8.70;;;;;;;4.17;84.55;100597.38;10337618;28;20153;-65
2023/12/07 04:00:54;;;;;;;10.02;8.65;;;;;;;4.18;84.96;100601.72;10336783;28;20980;-64
2023/12/07 04:05:56;;;;;;;11.88;10.38;;;;;;;4.27;85.04;100604.84;10350002;28;20136;-62
2023/12/07 04:10:57;;;;;;;11.57;9.38;;;;;;;4.30;84.67;100609.97;10339866;28;20523;-63
2023/12/07 04:15:59;;;;;;;10.73;9.00;;;;;;;4.04;84.76;100577.84;10335016;28;20061;-63
2023/12/07 04:21:00;;;;;;;13.32;9.23;;;;;;;4.07;85.35;100598.78;10339336;28;20049;-63
2023/12/07 04:26:02;;;;;;;10.50;8.80;;;;;;;4.14;85.77;100608.06;10337386;28;20132;-62
2023/12/07 04:31:04;;;;;;;11.27;10.20;;;;;;;4.06;85.40;100611.06;10332975;28;20806;-63
2023/12/07 04:36:06;;;;;;;12.32;9.95;;;;;;;3.98;86.04;100605.31;10343907;28;20045;-65
2023/12/07 04:41:07;;;;;;;11.82;10.15;;;;;;;4.02;85.79;100609.53;10336335;28;20057;-63
2023/12/07 04:46:08;;;;;;;11.63;9.27;;;;;;;4.03;86.16;100613.00;10353943;28;20046;-63
2023/12/07 04:51:10;;;;;;;11.38;9.48;;;;;;;4.04;85.52;100625.25;10337985;28;20153;-63
2023/12/07 04:56:12;;;;;;;12.52;9.70;;;;;;;4.03;86.28;100631.44;10335496;28;20176;-62
2023/12/07 05:01:13;;;;;;;11.10;9.93;;;;;;;4.07;86.47;100633.03;10334222;28;20050;-63
2023/12/07 05:06:14;;;;;;;14.55;10.07;;;;;;;4.13;86.59;100639.75;10350955;28;20640;-62
2023/12/07 05:11:16;;;;;;;10.77;9.68;;;;;;;4.16;86.98;100635.22;10333874;28;20096;-67
2023/12/07 05:16:18;;;;;;;12.98;9.40;;;;;;;4.19;86.12;100635.06;10333825;28;20731;-63
2023/12/07 05:21:20;;;;;;;10.25;9.05;;;;;;;4.22;86.87;100634.91;10346954;28;20127;-64
2023/12/07 05:26:21;;;;;;;10.15;9.15;;;;;;;4.13;85.98;100624.81;10340129;28;20137;-65
2023/12/07 05:31:22;;;;;;;11.73;10.52;;;;;;;4.18;86.54;100630.72;10343548;28;20176;-61
2023/12/07 05:36:24;;;;;;;12.35;10.05;;;;;;;4.15;86.11;100630.84;10341610;28;20046;-65
2023/12/07 05:41:25;;;;;;;14.40;10.18;;;;;;;4.09;85.86;100633.78;10338650;28;20052;-63
2023/12/07 05:46:27;;;;;;;11.93;10.18;;;;;;;4.09;85.95;100632.94;10344258;28;20762;-63
2023/12/07 05:51:29;;;;;;;10.35;9.02;;;;;;;3.91;86.24;100614.44;10336141;28;20392;-66
2023/12/07 05:56:31;;;;;;;10.73;9.60;;;;;;;3.96;86.07;100630.03;10348884;28;20049;-63
2023/12/07 06:01:32;;;;;;;12.77;11.10;;;;;;;3.82;86.20;100626.25;10360765;28;20045;-63
2023/12/07 06:06:34;;;;;;;13.85;10.48;;;;;;;3.57;86.72;100599.34;10329304;28;20057;-63
2023/12/07 06:11:36;;;;;;;12.65;10.07;;;;;;;3.82;87.06;100647.31;10347081;28;20686;-64
2023/12/07 06:16:39;;;;;;;12.73;10.93;;;;;;;3.85;86.83;100641.91;10340097;28;20053;-64
2023/12/07 06:21:40;;;;;;;12.27;10.88;;;;;;;3.62;87.46;100639.47;10338695;28;20046;-63
2023/12/07 06:26:42;;;;;;;14.05;11.93;;;;;;;3.66;87.70;100651.56;10354233;28;20540;-63
2023/12/07 06:31:44;;;;;;;15.05;12.43;;;;;;;3.63;87.37;100652.56;10326228;28;20053;-63
2023/12/07 06:36:47;;;;;;;14.32;11.43;;;;;;;3.52;87.93;100647.78;10341718;28;20061;-64
2023/12/07 06:41:48;;;;;;;13.10;11.73;;;;;;;3.54;87.91;100659.13;10343417;28;20053;-62
2023/12/07 06:46:53;;;;;;;14.93;12.10;;;;;;;3.06;87.72;100602.44;10333891;28;20061;-62
2023/12/07 06:51:54;;;;;;;13.63;10.13;;;;;;;3.41;88.28;100679.00;10344136;28;20056;-62
2023/12/07 06:56:56;;;;;;;14.77;12.95;;;;;;;3.41;88.99;100681.63;10328396;28;20064;-63
2023/12/07 07:01:57;;;;;;;15.40;13.48;;;;;;;3.40;89.17;100686.97;10304338;28;20125;-62
2023/12/07 07:06:59;;;;;;;14.60;13.15;;;;;;;3.42;89.30;100693.84;10317957;28;20153;-62
2023/12/07 07:12:01;;;;;;;17.27;14.00;;;;;;;3.34;89.44;100698.63;10320950;28;20045;-61
2023/12/07 07:17:04;;;;;;;16.38;13.90;;;;;;;3.35;89.45;100697.69;10316169;28;20132;-64
2023/12/07 07:22:05;;;;;;;16.08;14.02;;;;;;;3.32;89.82;100700.47;10334501;28;20077;-62
2023/12/07 07:27:07;;;;;;;17.67;13.73;;;;;;;3.25;90.25;100706.91;10290309;28;20054;-63
2023/12/07 07:32:08;;;;;;;15.75;13.75;;;;;;;3.30;90.71;100703.16;10310388;28;20047;-64
2023/12/07 07:37:11;;;;;;;18.90;14.75;;;;;;;3.34;89.83;100714.41;10292747;28;20782;-63
2023/12/07 07:42:13;;;;;;;14.65;12.93;;;;;;;3.31;89.50;100698.75;10283966;28;20046;-62
2023/12/07 07:47:15;;;;;;;22.58;15.60;;;;;;;3.23;90.00;100714.88;10278392;28;20656;-62
2023/12/07 07:52:16;;;;;;;17.02;14.90;;;;;;;3.28;89.98;100717.31;10296025;28;20136;-63
2023/12/07 07:57:18;;;;;;;18.08;14.50;;;;;;;3.35;89.82;100716.13;10306694;28;20052;-63
2023/12/07 08:02:21;;;;;;;16.90;14.73;;;;;;;3.31;89.96;100699.59;10290930;28;20045;-64
2023/12/07 08:07:23;;;;;;;17.45;14.70;;;;;;;3.37;90.12;100687.94;10291911;28;20141;-64
2023/12/07 08:12:25;;;;;;;15.68;13.85;;;;;;;3.57;89.90;100688.84;10292423;28;20598;-64
2023/12/07 08:17:31;;;;;;;17.20;14.23;;;;;;;3.49;89.02;100676.88;10317911;28;21571;-63
2023/12/07 08:22:32;;;;;;;18.17;14.32;;;;;;;3.51;89.35;100685.59;10320428;28;20049;-64
2023/12/07 08:27:34;;;;;;;17.50;15.32;;;;;;;3.50;89.63;100670.69;10311785;28;20055;-64
2023/12/07 08:32:36;;;;;;;18.65;16.58;;;;;;;3.52;90.26;100658.31;10316961;28;20527;-63
2023/12/07 08:37:39;;;;;;;19.05;16.13;;;;;;;3.54;90.25;100664.38;10305023;28;20045;-66
2023/12/07 08:42:41;;;;;;;21.70;15.63;;;;;;;3.50;89.89;100664.59;10326298;28;20512;-62
2023/12/07 08:47:42;;;;;;;19.73;16.60;;;;;;;3.55;90.44;100670.50;10339098;28;20088;-62
2023/12/07 08:52:44;;;;;;;18.23;15.90;;;;;;;3.50;91.19;100668.06;10336793;28;20780;-62
2023/12/07 08:57:56;;;;;;;18.90;15.77;;;;;;;3.52;91.17;100666.22;10315662;28;20522;-62
2023/12/07 09:02:58;;;;;;;22.85;17.15;;;;;;;3.62;91.62;100671.06;10330869;28;20062;-62
2023/12/07 09:08:00;;;;;;;20.65;17.13;;;;;;;3.60;91.87;100655.34;10317395;28;20131;-62
2023/12/07 09:13:02;;;;;;;23.75;17.65;;;;;;;3.65;92.04;100658.63;10341247;28;20049;-63
2023/12/07 09:18:03;;;;;;;21.77;16.48;;;;;;;3.88;91.55;100673.38;10340725;28;20832;-63
2023/12/07 09:23:05;;;;;;;23.23;17.42;;;;;;;3.88;91.51;100675.16;10316427;28;20145;-63
2023/12/07 09:28:07;;;;;;;22.83;17.67;;;;;;;3.96;90.52;100673.00;10322371;28;20052;-63
2023/12/07 09:33:08;;;;;;;22.00;17.23;;;;;;;4.07;89.58;100667.28;10306182;28;20057;-63
2023/12/07 09:38:10;;;;;;;20.60;16.80;;;;;;;4.29;89.85;100668.88;10299021;28;20374;-61
2023/12/07 09:43:12;;;;;;;18.73;16.75;;;;;;;4.45;88.68;100685.66;10295120;28;20065;-63
2023/12/07 09:48:16;;;;;;;22.98;18.42;;;;;;;4.36;87.89;100700.13;10296491;28;20168;-62
2023/12/07 09:53:18;;;;;;;23.48;17.55;;;;;;;4.52;88.66;100687.09;10312091;28;20146;-61
2023/12/07 09:58:19;;;;;;;21.15;16.67;;;;;;;4.55;88.26;100684.31;10290332;28;20050;-63
2023/12/07 10:03:32;;;;;;;19.42;17.15;;;;;;;4.45;88.73;100666.38;10314129;28;20061;-66
2023/12/07 10:08:37;;;;;;;23.00;18.48;;;;;;;4.55;88.74;100684.31;10335636;28;20058;-63
2023/12/07 10:13:40;;;;;;;24.10;18.52;;;;;;;4.55;89.29;100678.19;10338456;28;20061;-66
2023/12/07 10:18:43;;;;;;;25.77;19.65;;;;;;;4.47;90.14;100665.34;10340469;28;20076;-62
2023/12/07 10:23:47;;;;;;;24.02;17.65;;;;;;;4.40;90.51;100658.69;10340275;28;20054;-64
2023/12/07 10:28:53;;;;;;;23.10;18.25;;;;;;;4.28;89.65;100628.50;10356180;28;20065;-62
2023/12/07 10:33:55;;;;;;;;;;;;;;;4.41;89.78;100634.00;10341945;28;20470;-60
2023/12/07 10:38:56;;;;;;;35.78;26.55;;;;;;;4.29;89.08;100622.28;10337725;28;19997;-61
2023/12/07 10:44:03;;;;;;;29.10;18.92;;;;;;;4.48;89.35;100635.44;10311633;28;20116;-62
2023/12/07 10:49:07;;;;;;;24.35;16.85;;;;;;;4.46;88.74;100632.03;10338840;28;20094;-62
2023/12/07 10:54:23;;;;;;;21.90;16.63;;;;;;;4.45;88.91;100627.69;10311796;28;20061;-62
2023/12/07 10:59:24;;;;;;;24.60;17.02;;;;;;;4.59;88.89;100622.59;10338702;28;20077;-61
2023/12/07 11:04:34;;;;;;;22.83;18.05;;;;;;;4.80;88.37;100603.97;10343293;28;20054;-62
2023/12/07 11:09:41;;;;;;;23.45;16.45;;;;;;;4.92;87.53;100611.28;10325454;28;20062;-62
2023/12/07 11:14:44;;;;;;;21.08;17.58;;;;;;;4.95;87.62;100603.19;10292222;28;20128;-62
2023/12/07 11:19:46;;;;;;;20.35;16.17;;;;;;;4.93;87.57;100591.84;10288283;28;20619;-62
2023/12/07 11:24:53;;;;;;;24.20;18.65;;;;;;;4.76;87.02;100581.34;10281070;28;20136;-62
2023/12/07 11:29:54;;;;;;;27.55;21.05;;;;;;;4.66;88.09;100570.38;10285903;28;25337;-61
2023/12/07 11:35:03;;;;;;;25.90;19.98;;;;;;;4.70;88.90;100566.66;10274117;28;20114;-62
2023/12/07 11:40:07;;;;;;;27.50;22.02;;;;;;;4.70;89.67;100560.50;10291539;28;20042;-64
2023/12/07 11:45:09;;;;;;;29.50;22.88;;;;;;;4.77;88.12;100552.25;10276432;28;20066;-61
2023/12/07 11:50:10;;;;;;;34.63;24.10;;;;;;;4.77;88.10;100536.41;10280883;28;20113;-63
2023/12/07 11:55:12;;;;;;;31.98;24.30;;;;;;;4.83;88.40;100539.66;10289244;28;20176;-62
2023/12/07 12:00:14;;;;;;;28.05;21.63;;;;;;;4.90;88.40;100522.56;10287985;28;20062;-61
2023/12/07 12:05:18;;;;;;;29.80;22.02;;;;;;;4.93;88.04;100498.66;10295629;28;20042;-62
2023/12/07 12:10:20;;;;;;;32.45;23.77;;;;;;;4.99;88.07;100502.78;10324665;28;20056;-62
2023/12/07 12:15:23;;;;;;;35.63;26.48;;;;;;;5.00;86.88;100501.81;10328937;28;20046;-63
2023/12/07 12:20:25;;;;;;;28.17;22.75;;;;;;;5.06;87.74;100498.84;10332545;28;20550;-66
2023/12/07 12:25:30;;;;;;;30.90;22.90;;;;;;;5.11;87.72;100486.28;10332034;28;20725;-60
2023/12/07 12:30:33;;;;;;;33.30;25.48;;;;;;;5.19;87.14;100483.22;10349749;28;20843;-63
2023/12/07 12:35:35;;;;;;;35.50;25.55;;;;;;;5.04;87.08;100474.34;10351677;28;20049;-65
2023/12/07 12:40:36;;;;;;;36.92;26.63;;;;;;;5.20;87.61;100480.50;10334972;28;20069;-65
2023/12/07 12:45:38;;;;;;;33.45;25.15;;;;;;;5.03;87.04;100441.84;10349142;28;20839;-65
2023/12/07 12:50:41;;;;;;;29.33;22.67;;;;;;;5.22;86.52;100483.06;10348240;28;20979;-64
2023/12/07 12:55:43;;;;;;;32.47;23.35;;;;;;;5.21;86.89;100481.34;10331649;28;20060;-64
2023/12/07 13:00:45;;;;;;;27.30;21.80;;;;;;;5.24;85.02;100476.75;10317933;28;20073;-66
2023/12/07 13:05:47;;;;;;;29.70;23.55;;;;;;;5.26;85.68;100469.59;10348473;28;20054;-68
2023/12/07 13:10:49;;;;;;;29.50;23.90;;;;;;;5.29;86.90;100465.94;10339684;28;20555;-67
2023/12/07 13:15:51;;;;;;;27.90;22.10;;;;;;;5.26;85.71;100453.75;10346164;28;20784;-65
2023/12/07 13:20:52;;;;;;;30.17;23.00;;;;;;;5.20;86.14;100454.09;10347910;28;20060;-63
2023/12/07 13:25:57;;;;;;;24.73;19.15;;;;;;;5.20;86.01;100445.34;10334063;28;20062;-64
2023/12/07 13:30:58;;;;;;;26.58;21.00;;;;;;;5.14;86.49;100442.09;10332731;28;20137;-65
2023/12/07 13:36:01;;;;;;;28.92;21.90;;;;;;;5.19;86.16;100426.00;10331212;28;20558;-65
2023/12/07 13:41:07;;;;;;;26.33;21.80;;;;;;;5.31;86.09;100432.38;10340645;28;20156;-64
2023/12/07 13:46:10;;;;;;;31.50;21.30;;;;;;;5.35;86.55;100441.00;10341347;28;20049;-64
2023/12/07 13:51:12;;;;;;;28.95;22.05;;;;;;;5.20;85.96;100422.44;10322555;28;20054;-63
2023/12/07 13:56:14;;;;;;;26.65;20.38;;;;;;;5.14;85.63;100422.78;10331290;28;20124;-66
2023/12/07 14:01:17;;;;;;;26.10;19.30;;;;;;;5.28;86.19;100438.72;10340415;28;20069;-65
2023/12/07 14:06:23;;;;;;;24.20;19.50;;;;;;;5.29;84.93;100416.63;10340259;28;20049;-65
2023/12/07 14:11:29;;;;;;;24.15;19.38;;;;;;;5.32;84.71;100431.47;10334707;28;20060;-64
2023/12/07 14:16:31;;;;;;;23.35;18.98;;;;;;;5.18;85.51;100408.50;10335097;28;20080;-64
2023/12/07 14:21:53;;;;;;;26.05;20.40;;;;;;;5.20;85.89;100417.16;10332400;28;20121;-64
2023/12/07 14:26:57;;;;;;;24.75;18.83;;;;;;;5.19;85.88;100399.59;10339723;28;20045;-63
2023/12/07 14:32:00;;;;;;;21.15;17.33;;;;;;;5.16;85.50;100402.41;10329102;28;20108;-65
2023/12/07 14:37:05;;;;;;;24.42;18.50;;;;;;;5.06;86.54;100382.75;10337513;28;20046;-64
2023/12/07 14:42:08;;;;;;;22.13;18.73;;;;;;;5.03;86.47;100388.19;10336913;28;20184;-63
2023/12/07 14:47:10;;;;;;;21.75;17.35;;;;;;;5.05;86.97;100383.72;10324667;28;20050;-65
2023/12/07 14:52:12;;;;;;;21.73;17.27;;;;;;;5.01;86.82;100376.91;10336437;28;20064;-64
2023/12/07 14:57:13;;;;;;;21.63;16.02;;;;;;;4.92;86.48;100363.28;10338819;28;20057;-64
2023/12/07 15:02:15;;;;;;;18.70;14.75;;;;;;;4.72;86.85;100347.69;10338287;28;20127;-64
2023/12/07 15:07:17;;;;;;;16.88;13.82;;;;;;;4.79;87.34;100356.97;10323216;28;20045;-64
2023/12/07 15:12:21;;;;;;;15.13;13.52;;;;;;;4.70;86.76;100344.28;10311837;28;20077;-64
2023/12/07 15:17:27;;;;;;;15.30;13.75;;;;;;;4.70;86.76;100363.59;10286985;28;20054;-64
2023/12/07 15:22:29;;;;;;;16.15;13.60;;;;;;;4.58;86.52;100359.84;10322555;28;20226;-63
2023/12/07 15:27:30;;;;;;;13.73;12.32;;;;;;;4.52;86.70;100340.84;10302563;28;20104;-64
2023/12/07 15:32:32;;;;;;;12.52;11.23;;;;;;;4.51;86.92;100329.47;10339378;28;20049;-63
2023/12/07 15:37:33;;;;;;;13.82;11.10;;;;;;;4.48;86.22;100324.38;10339123;28;20053;-64
2023/12/07 15:42:35;;;;;;;12.13;10.77;;;;;;;4.39;85.92;100324.88;10343153;28;20124;-66
2023/12/07 15:47:36;;;;;;;10.10;8.57;;;;;;;4.21;84.95;100319.63;10330050;28;20100;-64
2023/12/07 15:52:38;;;;;;;10.10;8.90;;;;;;;4.03;85.92;100312.69;10339518;28;20060;-65
2023/12/07 15:57:39;;;;;;;11.00;9.48;;;;;;;3.89;85.83;100316.91;10342690;28;20677;-64
2023/12/07 16:02:41;;;;;;;10.07;9.07;;;;;;;3.90;85.35;100323.00;10332498;28;20395;-65
2023/12/07 16:07:43;;;;;;;9.93;8.90;;;;;;;3.94;85.09;100313.19;10348223;28;20050;-65
2023/12/07 16:12:44;;;;;;;10.05;8.85;;;;;;;3.67;84.74;100279.44;10338095;28;20212;-63
2023/12/07 16:17:46;;;;;;;8.07;7.28;;;;;;;3.78;84.37;100308.69;10336165;28;20124;-65
2023/12/07 16:22:47;;;;;;;8.32;7.43;;;;;;;3.66;83.98;100314.59;10336373;28;20546;-63
2023/12/07 16:27:52;;;;;;;7.80;7.00;;;;;;;3.58;83.87;100311.50;10338319;28;20057;-64
2023/12/07 16:32:53;;;;;;;7.97;7.28;;;;;;;3.61;84.29;100306.09;10335224;28;20057;-65
2023/12/07 16:37:55;;;;;;;17.40;12.13;;;;;;;3.54;84.07;100298.50;10337222;28;20073;-66
2023/12/07 16:42:57;;;;;;;9.30;7.88;;;;;;;3.52;83.95;100287.19;10340588;28;20165;-65
2023/12/07 16:47:59;;;;;;;9.50;8.18;;;;;;;3.60;84.70;100284.16;10338160;28;20078;-65
2023/12/07 16:53:01;;;;;;;9.35;8.27;;;;;;;3.34;83.83;100280.22;10336927;28;20046;-65
2023/12/07 16:58:03;;;;;;;8.85;7.95;;;;;;;3.43;84.69;100277.13;10339358;28;20055;-63
2023/12/07 17:03:05;;;;;;;8.98;8.07;;;;;;;3.38;84.42;100266.00;10351047;28;20038;-64
2023/12/07 17:08:08;;;;;;;8.65;7.82;;;;;;;3.40;84.95;100255.38;10333755;28;20064;-65
2023/12/07 17:13:11;;;;;;;9.55;8.55;;;;;;;3.47;85.23;100241.84;10334565;28;20058;-65
2023/12/07 17:18:12;;;;;;;12.43;9.05;;;;;;;3.31;84.63;100246.16;10342008;28;20147;-62
2023/12/07 17:23:14;;;;;;;12.40;11.02;;;;;;;3.25;84.74;100236.81;10336260;28;20427;-65
2023/12/07 17:28:17;;;;;;;14.27;11.60;;;;;;;3.33;84.65;100244.31;10342078;28;20108;-64
2023/12/07 17:33:19;;;;;;;13.88;11.02;;;;;;;3.44;84.79;100241.13;10343894;28;20135;-66
2023/12/07 17:38:20;;;;;;;10.25;8.95;;;;;;;3.35;84.62;100242.47;10343287;28;20041;-64
2023/12/07 17:43:22;;;;;;;9.80;8.80;;;;;;;3.36;84.84;100241.50;10337503;28;20061;-64
2023/12/07 17:48:24;;;;;;;10.15;8.95;;;;;;;3.35;84.83;100234.56;10331288;28;20522;-67
2023/12/07 17:53:28;;;;;;;11.23;10.07;;;;;;;3.13;84.27;100221.63;10339259;28;20155;-64
2023/12/07 17:58:30;;;;;;;14.30;9.98;;;;;;;3.07;84.52;100238.56;10352883;28;20061;-66
2023/12/07 18:03:31;;;;;;;11.20;9.15;;;;;;;3.20;84.94;100223.03;10336715;28;20057;-66
2023/12/07 18:08:32;;;;;;;10.27;8.95;;;;;;;3.19;84.69;100221.31;10341848;28;20049;-62
2023/12/07 18:13:34;;;;;;;10.88;9.77;;;;;;;3.21;84.26;100227.34;10344751;28;20051;-64
2023/12/07 18:18:36;;;;;;;11.57;9.80;;;;;;;3.31;84.69;100220.69;10332567;28;20041;-64
2023/12/07 18:23:38;;;;;;;9.93;8.15;;;;;;;3.33;83.88;100212.72;10352729;28;20047;-63
2023/12/07 18:28:40;;;;;;;11.32;9.85;;;;;;;3.18;83.43;100215.22;10336758;28;20060;-63
2023/12/07 18:33:45;;;;;;;11.00;9.68;;;;;;;3.15;83.97;100210.13;10350025;28;20050;-63
2023/12/07 18:38:47;;;;;;;13.75;10.55;;;;;;;3.17;84.25;100196.88;10324676;28;20049;-63
2023/12/07 18:43:48;;;;;;;11.90;10.00;;;;;;;3.27;84.28;100192.00;10348176;28;21055;-63
2023/12/07 18:48:49;;;;;;;13.95;11.73;;;;;;;3.19;83.84;100185.34;10340422;28;20164;-64
2023/12/07 18:53:51;;;;;;;11.60;9.85;;;;;;;3.17;84.35;100171.44;10330106;28;20061;-63
2023/12/07 18:58:53;;;;;;;11.50;10.18;;;;;;;3.25;84.22;100172.81;10326946;28;20057;-64
2023/12/07 19:03:54;;;;;;;11.77;10.52;;;;;;;3.27;83.67;100173.59;10349153;28;20161;-65
2023/12/07 19:08:56;;;;;;;12.55;11.25;;;;;;;3.31;83.46;100169.88;10345555;28;20061;-65
2023/12/07 19:13:57;;;;;;;14.95;12.90;;;;;;;3.33;83.25;100166.25;10341167;28;20059;-65
2023/12/07 19:18:59;;;;;;;14.07;12.45;;;;;;;3.31;82.78;100149.66;10341071;28;20645;-64
2023/12/07 19:24:01;;;;;;;17.65;13.65;;;;;;;3.32;82.63;100150.53;10343771;28;20197;-65
2023/12/07 19:29:02;;;;;;;13.20;11.32;;;;;;;3.30;82.09;100155.88;10336336;28;20050;-64
2023/12/07 19:34:05;;;;;;;13.32;11.63;;;;;;;3.31;82.37;100149.66;10318101;28;20497;-64
2023/12/07 19:39:10;;;;;;;13.07;10.90;;;;;;;3.20;82.09;100133.59;10336328;28;20649;-64
2023/12/07 19:44:12;;;;;;;14.60;12.55;;;;;;;3.29;81.99;100142.81;10320516;28;20131;-64
2023/12/07 19:49:14;;;;;;;14.20;12.18;;;;;;;3.32;81.92;100137.38;10325057;28;20109;-64
2023/12/07 19:54:17;;;;;;;15.05;13.02;;;;;;;3.27;81.72;100134.13;10337130;28;20387;-63
2023/12/07 19:59:20;;;;;;;;;;;;;;;3.30;81.88;100131.31;10333990;28;20536;-65
2023/12/07 20:04:22;;;;;;;16.27;13.45;;;;;;;3.28;81.73;100109.53;10339362;28;20015;-66
2023/12/07 20:09:24;;;;;;;15.88;13.38;;;;;;;3.26;81.99;100095.56;10344650;28;20050;-63
2023/12/07 20:14:26;;;;;;;15.50;13.80;;;;;;;3.28;81.93;100077.94;10342881;28;20790;-64
2023/12/07 20:19:31;;;;;;;17.30;13.68;;;;;;;3.23;82.16;100070.31;10341432;28;20050;-63
2023/12/07 20:24:34;;;;;;;18.85;15.00;;;;;;;3.21;81.84;100050.25;10315245;28;20065;-64
2023/12/07 20:29:36;;;;;;;17.83;14.43;;;;;;;3.15;81.70;100036.50;10333294;28;20132;-65
2023/12/07 20:34:37;;;;;;;16.75;14.20;;;;;;;3.26;82.07;100040.31;10328750;28;20430;-64
2023/12/07 20:39:38;;;;;;;19.60;15.32;;;;;;;3.21;81.36;100031.84;10335438;28;20049;-64
2023/12/07 20:44:41;;;;;;;20.25;15.85;;;;;;;3.24;81.48;100035.16;10328672;28;20073;-64
2023/12/07 20:49:43;;;;;;;17.73;14.40;;;;;;;3.21;81.29;100019.53;10325518;28;20045;-63
2023/12/07 20:54:45;;;;;;;19.90;15.05;;;;;;;3.19;80.89;99998.56;10354651;28;20049;-63
2023/12/07 20:59:48;;;;;;;19.15;15.32;;;;;;;3.15;81.41;99972.53;10346655;28;20478;-63
2023/12/07 21:04:50;;;;;;;19.70;14.23;;;;;;;3.15;80.88;99962.88;10357425;28;20062;-63
2023/12/07 21:09:51;;;;;;;20.50;16.10;;;;;;;3.06;81.14;99955.44;10338970;28;20052;-63
2023/12/07 21:14:54;;;;;;;17.73;14.57;;;;;;;3.03;81.06;99950.34;10356796;28;20065;-66
2023/12/07 21:19:56;;;;;;;24.17;16.10;;;;;;;2.96;81.61;99951.66;10339978;28;20406;-64
2023/12/07 21:24:58;;;;;;;21.08;16.27;;;;;;;3.03;81.23;99971.41;10349533;28;20072;-64
2023/12/07 21:30:00;;;;;;;18.27;15.32;;;;;;;2.91;81.36;99949.25;10349899;28;20056;-62
2023/12/07 21:35:01;;;;;;;16.67;12.93;;;;;;;3.09;81.40;99921.13;10344556;28;20183;-63
2023/12/07 21:40:03;;;;;;;21.10;16.02;;;;;;;3.07;80.90;99915.06;10341079;28;20060;-65
2023/12/07 21:45:05;;;;;;;22.60;15.43;;;;;;;3.04;81.06;99928.41;10338353;28;20699;-65
2023/12/07 21:50:07;;;;;;;17.92;13.80;;;;;;;3.15;81.35;99915.53;10342895;28;20182;-62
2023/12/07 21:55:12;;;;;;;17.55;12.85;;;;;;;3.24;80.50;99884.38;10350297;28;20574;-64
2023/12/07 22:00:17;;;;;;;25.65;19.08;;;;;;;3.24;80.27;99873.84;10339480;28;20162;-64
2023/12/07 22:05:19;;;;;;;21.77;16.98;;;;;;;3.23;80.21;99880.91;10350871;28;20054;-63
2023/12/07 22:10:22;;;;;;;18.90;15.35;;;;;;;3.26;79.94;99878.09;10340050;28;20046;-63
2023/12/07 22:15:30;;;;;;;19.95;14.55;;;;;;;3.21;79.56;99868.75;10335172;28;20136;-64
2023/12/07 22:20:31;;;;;;;16.27;13.93;;;;;;;3.33;80.11;99860.16;10338819;28;20049;-63
2023/12/07 22:25:33;;;;;;;15.52;13.07;;;;;;;3.40;79.42;99855.41;10357028;28;20726;-63
2023/12/07 22:30:35;;;;;;;17.25;14.23;;;;;;;3.35;79.11;99843.38;10343296;28;20525;-62
2023/12/07 22:35:37;;;;;;;16.48;13.88;;;;;;;3.44;79.18;99844.63;10332344;28;20327;-64
2023/12/07 22:40:39;;;;;;;16.50;13.82;;;;;;;3.49;79.25;99839.94;10357363;28;20050;-62
2023/12/07 22:45:40;;;;;;;17.80;14.48;;;;;;;3.53;78.68;99852.00;10336899;28;20054;-64
2023/12/07 22:50:42;;;;;;;18.30;15.27;;;;;;;3.51;78.48;99840.72;10337303;28;20057;-63
2023/12/07 22:55:43;;;;;;;18.83;14.10;;;;;;;3.49;78.42;99837.31;10339556;28;20057;-63
2023/12/07 23:00:46;;;;;;;19.52;15.30;;;;;;;3.52;78.64;99823.97;10343526;28;20049;-62
2023/12/07 23:05:50;;;;;;;19.90;15.57;;;;;;;3.54;77.92;99816.84;10341446;28;20057;-61